Fayville, Illinois
Current Conditions -  °F | °C
As of 8:18 AM on Thursday 18 Dec 2014 (Local Time) from KCGI Reporting Station
Haze Haze  
Wind Chill: -2°   Ceiling: 600
Heat Index:   Visibility: 1.7mi
Dew Point:   Wind: 6mph
Humidity: 96%   Direction: 30°NNE
Pressure: 30.29"   Gusts: NA
Location:  37.1947°N, 89.3961°W
Report Text: KCGI 181418Z 03005KT 1 3/4SM BR OVC006 01/00 A3029 RMK AO2 CIG 004V009 T00060000
Loading
Personal Weather Stations






























Interactive Weather Map New forecast layout! Learn more

10-Day Weather Forecast

Advertisements
Track Severe Weather on mobile